Time;durP1;ratioP1;P1;durP2;ratioP2;P2;SDS_P1;SDS_P2;PMS_P1;PMS_P2;Temp;Humidity;BMP_temperature;BMP_pressure;BME280_temperature;BME280_humidity;BME280_pressure;Samples;Min_cycle;Max_cycle;Signal;HPM_P1;HPM_P2
2021/06/30 00:00:39;;;;;;;11.23;9.10;;;;;;;;;;5094394;28;20074;-74
2021/06/30 00:12:15;;;;;;;12.02;6.88;;;;;;;;;;5094600;28;20047;-74
2021/06/30 00:14:41;;;;;;;8.35;6.85;;;;;;;;;;5093823;28;20020;-74
2021/06/30 00:17:08;;;;;;;9.73;8.10;;;;;;;;;;5094220;28;20054;-74
2021/06/30 00:19:34;;;;;;;11.48;7.55;;;;;;;;;;5094127;28;20028;-74
2021/06/30 00:22:00;;;;;;;8.40;7.55;;;;;;;;;;5094561;28;20024;-74
2021/06/30 00:24:26;;;;;;;7.65;6.95;;;;;;;;;;5094241;28;20028;-74
2021/06/30 00:26:52;;;;;;;11.10;7.70;;;;;;;;;;5094412;28;20032;-74
2021/06/30 00:29:18;;;;;;;8.65;7.13;;;;;;;;;;5093944;28;20482;-74
2021/06/30 00:31:44;;;;;;;9.45;6.65;;;;;;;;;;5094190;28;20032;-74
2021/06/30 00:34:10;;;;;;;7.53;6.75;;;;;;;;;;5094091;28;20028;-74
2021/06/30 00:36:37;;;;;;;9.73;6.85;;;;;;;;;;5094450;28;20031;-74
2021/06/30 00:39:04;;;;;;;6.85;6.15;;;;;;;;;;5093964;28;20123;-74
2021/06/30 00:41:30;;;;;;;7.70;6.85;;;;;;;;;;5094112;28;20024;-74
2021/06/30 00:43:56;;;;;;;7.70;6.93;;;;;;;;;;5093886;28;20024;-74
2021/06/30 00:46:24;;;;;;;7.50;6.80;;;;;;;;;;5093863;28;20035;-74
2021/06/30 00:48:50;;;;;;;9.13;6.15;;;;;;;;;;5093874;28;20032;-74
2021/06/30 00:51:17;;;;;;;6.95;6.28;;;;;;;;;;5093499;28;20044;-75
2021/06/30 00:53:43;;;;;;;7.63;6.72;;;;;;;;;;5094408;28;20048;-75
2021/06/30 00:56:09;;;;;;;7.20;6.20;;;;;;;;;;5094369;28;20389;-74
2021/06/30 00:58:35;;;;;;;6.72;6.22;;;;;;;;;;5094197;28;20024;-74
2021/06/30 01:01:01;;;;;;;6.72;6.13;;;;;;;;;;5093909;28;20024;-75
2021/06/30 01:03:27;;;;;;;7.25;6.53;;;;;;;;;;5093729;28;20067;-75
2021/06/30 01:05:53;;;;;;;7.50;6.25;;;;;;;;;;5093760;28;20028;-75
2021/06/30 01:08:19;;;;;;;7.07;6.20;;;;;;;;;;5093886;28;20024;-75
2021/06/30 01:10:45;;;;;;;7.32;5.80;;;;;;;;;;5093762;28;20020;-74
2021/06/30 01:13:11;;;;;;;8.60;6.07;;;;;;;;;;5093575;28;20040;-74
2021/06/30 01:15:45;;;;;;;9.05;6.57;;;;;;;;;;5093694;28;20028;-74
2021/06/30 01:18:11;;;;;;;6.18;5.55;;;;;;;;;;5093736;28;20059;-74
2021/06/30 01:20:37;;;;;;;6.45;5.03;;;;;;;;;;5094007;28;20024;-74
2021/06/30 01:23:06;;;;;;;7.20;6.38;;;;;;;;;;5093490;28;20026;-74
2021/06/30 01:25:32;;;;;;;6.63;5.20;;;;;;;;;;5096007;28;20032;-75
2021/06/30 01:27:58;;;;;;;6.47;5.88;;;;;;;;;;5097651;28;20027;-74
2021/06/30 01:30:24;;;;;;;7.00;5.38;;;;;;;;;;5097851;28;20032;-74
2021/06/30 01:32:50;;;;;;;9.50;5.28;;;;;;;;;;5097354;28;20032;-74
2021/06/30 01:35:24;;;;;;;5.97;5.47;;;;;;;;;;5097319;28;20020;-74
2021/06/30 01:37:50;;;;;;;5.57;5.07;;;;;;;;;;5098114;28;20024;-75
2021/06/30 01:40:16;;;;;;;7.10;5.43;;;;;;;;;;5097946;28;20412;-75
2021/06/30 01:42:43;;;;;;;5.55;5.03;;;;;;;;;;5098118;28;20084;-75
2021/06/30 01:45:10;;;;;;;5.82;5.20;;;;;;;;;;5097644;28;20373;-74
2021/06/30 01:47:36;;;;;;;6.15;4.45;;;;;;;;;;5097185;28;20093;-74
2021/06/30 01:50:02;;;;;;;5.30;4.80;;;;;;;;;;5098355;28;20028;-75
2021/06/30 01:52:29;;;;;;;5.28;4.82;;;;;;;;;;5097078;28;20508;-74
2021/06/30 01:54:56;;;;;;;6.63;5.07;;;;;;;;;;5097556;28;20024;-74
2021/06/30 01:57:22;;;;;;;4.88;4.38;;;;;;;;;;5097261;28;20031;-74
2021/06/30 01:59:48;;;;;;;9.13;4.32;;;;;;;;;;5097335;28;20024;-75
2021/06/30 02:02:14;;;;;;;5.18;4.25;;;;;;;;;;5096753;28;20059;-75
2021/06/30 02:04:41;;;;;;;6.05;5.07;;;;;;;;;;5096985;28;20027;-74
2021/06/30 02:07:07;;;;;;;5.30;4.55;;;;;;;;;;5096790;28;20028;-75
2021/06/30 02:09:33;;;;;;;5.13;4.57;;;;;;;;;;5096865;28;20036;-75
2021/06/30 02:11:59;;;;;;;5.05;4.57;;;;;;;;;;5097228;28;20028;-74
2021/06/30 02:14:25;;;;;;;6.55;5.13;;;;;;;;;;5096610;28;20111;-74
2021/06/30 02:16:51;;;;;;;6.13;4.03;;;;;;;;;;5096454;28;20385;-75
2021/06/30 02:19:18;;;;;;;6.38;4.10;;;;;;;;;;5096614;28;20404;-74
2021/06/30 02:21:44;;;;;;;5.25;4.20;;;;;;;;;;5096824;28;20024;-75
2021/06/30 02:24:10;;;;;;;6.10;4.50;;;;;;;;;;5096715;28;20032;-75
2021/06/30 02:26:36;;;;;;;6.28;4.57;;;;;;;;;;5096488;28;20031;-74
2021/06/30 02:29:03;;;;;;;5.00;4.57;;;;;;;;;;5096357;28;20036;-74
2021/06/30 02:31:29;;;;;;;4.85;4.35;;;;;;;;;;5096071;28;20103;-75
2021/06/30 02:33:55;;;;;;;7.32;3.95;;;;;;;;;;5096941;28;20504;-74
2021/06/30 02:36:21;;;;;;;9.88;4.07;;;;;;;;;;5095637;28;20028;-74
2021/06/30 02:38:47;;;;;;;4.22;3.83;;;;;;;;;;5096594;28;20024;-75
2021/06/30 02:41:13;;;;;;;4.82;4.43;;;;;;;;;;5096105;28;20078;-74
2021/06/30 02:43:39;;;;;;;5.05;3.70;;;;;;;;;;5096131;28;20020;-75
2021/06/30 02:46:05;;;;;;;4.32;3.95;;;;;;;;;;5095727;28;20420;-75
2021/06/30 02:48:31;;;;;;;11.25;4.10;;;;;;;;;;5096230;28;20466;-75
2021/06/30 02:50:57;;;;;;;4.75;4.20;;;;;;;;;;5096150;28;20020;-75
2021/06/30 02:53:23;;;;;;;4.32;3.42;;;;;;;;;;5095367;28;20060;-74
2021/06/30 02:55:49;;;;;;;4.55;4.15;;;;;;;;;;5096061;28;20063;-75
2021/06/30 02:58:15;;;;;;;4.45;4.03;;;;;;;;;;5096031;28;20020;-75
2021/06/30 03:00:41;;;;;;;4.25;3.95;;;;;;;;;;5095790;28;20024;-74
2021/06/30 03:03:08;;;;;;;5.20;4.10;;;;;;;;;;5096351;28;20013;-74
2021/06/30 03:05:34;;;;;;;5.75;4.00;;;;;;;;;;5095961;28;20489;-74
2021/06/30 03:08:01;;;;;;;4.78;3.35;;;;;;;;;;5096334;28;20028;-74
2021/06/30 03:10:27;;;;;;;4.50;3.92;;;;;;;;;;5095967;28;20359;-75
2021/06/30 03:12:53;;;;;;;4.68;3.58;;;;;;;;;;5095780;28;20032;-75
2021/06/30 03:15:19;;;;;;;8.60;4.13;;;;;;;;;;5095049;28;20028;-74
2021/06/30 03:17:45;;;;;;;4.53;4.07;;;;;;;;;;5095692;28;20071;-75
2021/06/30 03:20:11;;;;;;;4.13;3.83;;;;;;;;;;5095619;28;20463;-75
2021/06/30 03:22:38;;;;;;;3.90;3.33;;;;;;;;;;5095580;28;20032;-75
2021/06/30 03:25:05;;;;;;;9.20;3.85;;;;;;;;;;5095436;28;20425;-73
2021/06/30 03:27:31;;;;;;;4.65;3.47;;;;;;;;;;5095834;28;20099;-74
2021/06/30 03:29:57;;;;;;;5.07;3.78;;;;;;;;;;5095187;28;20039;-75
2021/06/30 03:32:23;;;;;;;7.80;4.32;;;;;;;;;;5095430;28;20039;-75
2021/06/30 03:34:49;;;;;;;4.57;3.72;;;;;;;;;;5095416;28;20174;-74
2021/06/30 03:37:15;;;;;;;3.70;3.40;;;;;;;;;;5095197;28;20493;-75
2021/06/30 03:39:41;;;;;;;6.00;3.78;;;;;;;;;;5095176;28;20489;-74
2021/06/30 03:42:07;;;;;;;4.25;3.25;;;;;;;;;;5095113;28;20493;-75
2021/06/30 03:44:33;;;;;;;3.78;3.38;;;;;;;;;;5094734;28;20500;-74
2021/06/30 03:46:59;;;;;;;4.70;3.40;;;;;;;;;;5095193;28;20118;-75
2021/06/30 03:49:25;;;;;;;5.45;3.38;;;;;;;;;;5094686;28;20027;-75
2021/06/30 03:51:51;;;;;;;3.60;3.08;;;;;;;;;;5095305;28;20044;-74
2021/06/30 03:54:17;;;;;;;3.58;3.28;;;;;;;;;;5094610;28;20023;-75
2021/06/30 03:56:43;;;;;;;3.97;3.10;;;;;;;;;;5094684;28;20044;-74
2021/06/30 03:59:09;;;;;;;7.18;3.72;;;;;;;;;;5094092;28;20047;-74
2021/06/30 04:01:35;;;;;;;3.13;2.83;;;;;;;;;;5095075;28;20034;-75
2021/06/30 04:04:05;;;;;;;4.72;3.20;;;;;;;;;;5094899;28;20066;-74
2021/06/30 04:06:33;;;;;;;7.57;3.72;;;;;;;;;;5095120;28;20021;-74
2021/06/30 04:08:59;;;;;;;3.97;3.58;;;;;;;;;;5094727;28;20028;-75
2021/06/30 04:11:25;;;;;;;4.97;3.60;;;;;;;;;;5094203;28;20156;-75
2021/06/30 04:13:51;;;;;;;8.57;3.42;;;;;;;;;;5094114;28;20390;-75
2021/06/30 04:16:17;;;;;;;4.15;3.63;;;;;;;;;;5095166;28;20050;-74
2021/06/30 04:18:43;;;;;;;4.28;3.08;;;;;;;;;;5094535;28;20020;-74
2021/06/30 04:21:10;;;;;;;3.95;3.22;;;;;;;;;;5094158;28;20027;-74
2021/06/30 04:23:36;;;;;;;4.32;3.45;;;;;;;;;;5094561;28;20024;-74
2021/06/30 04:26:02;;;;;;;4.70;3.20;;;;;;;;;;5094199;28;20049;-74
2021/06/30 04:28:28;;;;;;;3.25;2.95;;;;;;;;;;5094073;28;20020;-75
2021/06/30 04:30:55;;;;;;;4.40;3.42;;;;;;;;;;5094283;28;20021;-74
2021/06/30 04:33:21;;;;;;;3.67;3.38;;;;;;;;;;5094154;28;20677;-74
2021/06/30 04:35:47;;;;;;;3.85;2.83;;;;;;;;;;5094752;28;20020;-75
2021/06/30 04:38:13;;;;;;;3.17;2.92;;;;;;;;;;5094161;28;20032;-75
2021/06/30 04:40:39;;;;;;;3.47;2.78;;;;;;;;;;5094005;28;20377;-75
2021/06/30 04:43:05;;;;;;;10.02;3.58;;;;;;;;;;5093571;28;20031;-75
2021/06/30 04:45:31;;;;;;;5.88;3.15;;;;;;;;;;5093687;28;20032;-73
2021/06/30 04:47:57;;;;;;;4.80;3.05;;;;;;;;;;5094075;28;20024;-73
2021/06/30 04:50:23;;;;;;;4.00;3.10;;;;;;;;;;5093175;28;20023;-72
2021/06/30 04:52:49;;;;;;;4.15;3.10;;;;;;;;;;5092534;28;20469;-72
2021/06/30 04:55:15;;;;;;;5.28;3.22;;;;;;;;;;5092158;28;20539;-73
2021/06/30 04:57:41;;;;;;;4.93;3.47;;;;;;;;;;5092683;28;20024;-74
2021/06/30 05:00:08;;;;;;;3.08;2.75;;;;;;;;;;5091850;28;20028;-73
2021/06/30 05:02:34;;;;;;;4.03;2.92;;;;;;;;;;5092444;28;20039;-72
2021/06/30 05:05:01;;;;;;;5.72;3.45;;;;;;;;;;5092654;28;20024;-75
2021/06/30 05:07:27;;;;;;;5.53;3.10;;;;;;;;;;5092031;28;20076;-77
2021/06/30 05:09:53;;;;;;;14.70;3.22;;;;;;;;;;5093147;28;20028;-73
2021/06/30 05:12:19;;;;;;;4.30;2.95;;;;;;;;;;5093470;28;20028;-77
2021/06/30 05:14:45;;;;;;;3.75;3.28;;;;;;;;;;5094849;28;20119;-75
2021/06/30 05:17:11;;;;;;;5.75;3.30;;;;;;;;;;5092998;28;20021;-73
2021/06/30 05:19:37;;;;;;;3.72;3.28;;;;;;;;;;5093102;28;20025;-74
2021/06/30 05:22:04;;;;;;;4.60;3.17;;;;;;;;;;5093430;28;20025;-76
2021/06/30 05:24:30;;;;;;;4.25;3.08;;;;;;;;;;5092992;28;20035;-76
2021/06/30 05:26:56;;;;;;;4.97;3.08;;;;;;;;;;5093119;28;20028;-74
2021/06/30 05:29:22;;;;;;;6.05;3.50;;;;;;;;;;5093032;28;20024;-74
2021/06/30 05:31:48;;;;;;;3.90;3.08;;;;;;;;;;5093070;28;20032;-75
2021/06/30 05:34:14;;;;;;;4.57;3.00;;;;;;;;;;5092650;28;20578;-74
2021/06/30 05:36:44;;;;;;;7.65;3.17;;;;;;;;;;5092969;28;20439;-75
2021/06/30 05:39:10;;;;;;;7.05;3.00;;;;;;;;;;5092862;28;20024;-74
2021/06/30 05:41:36;;;;;;;3.72;2.67;;;;;;;;;;5092887;28;20047;-74
2021/06/30 05:44:03;;;;;;;12.02;3.58;;;;;;;;;;5093230;28;20028;-72
2021/06/30 05:46:29;;;;;;;11.52;3.75;;;;;;;;;;5093194;28;20404;-73
2021/06/30 05:48:56;;;;;;;4.68;3.45;;;;;;;;;;5093406;28;20024;-73
2021/06/30 05:51:22;;;;;;;13.13;2.85;;;;;;;;;;5091810;28;20408;-74
2021/06/30 05:53:49;;;;;;;15.50;3.10;;;;;;;;;;5093354;28;20036;-76
2021/06/30 05:56:15;;;;;;;10.77;3.08;;;;;;;;;;5093268;28;20461;-74
2021/06/30 05:58:41;;;;;;;9.25;3.20;;;;;;;;;;5093497;28;20522;-75
2021/06/30 06:01:07;;;;;;;9.95;3.35;;;;;;;;;;5092701;28;20020;-73
2021/06/30 06:03:33;;;;;;;6.53;3.00;;;;;;;;;;5092265;28;20453;-76
2021/06/30 06:05:59;;;;;;;4.63;2.65;;;;;;;;;;5091210;28;20061;-76
2021/06/30 06:08:25;;;;;;;7.70;4.30;;;;;;;;;;5093765;28;20084;-73
2021/06/30 06:10:51;;;;;;;8.68;4.00;;;;;;;;;;5093329;28;20020;-74
2021/06/30 06:13:17;;;;;;;4.55;3.53;;;;;;;;;;5097414;28;20036;-79
2021/06/30 06:15:43;;;;;;;7.10;3.65;;;;;;;;;;5098348;28;20465;-71
2021/06/30 06:18:09;;;;;;;3.10;2.70;;;;;;;;;;5097812;28;20469;-71
2021/06/30 06:20:35;;;;;;;11.05;4.00;;;;;;;;;;5099007;28;20064;-72
2021/06/30 06:23:01;;;;;;;6.68;3.00;;;;;;;;;;5097859;28;20024;-71
2021/06/30 06:25:28;;;;;;;5.55;3.30;;;;;;;;;;5097750;28;20032;-71
2021/06/30 06:27:54;;;;;;;3.67;3.25;;;;;;;;;;5097360;28;20425;-72
2021/06/30 06:30:20;;;;;;;4.45;3.15;;;;;;;;;;5096615;28;20026;-72
2021/06/30 06:32:46;;;;;;;15.38;3.33;;;;;;;;;;5096700;28;20028;-72
2021/06/30 06:35:12;;;;;;;6.55;2.38;;;;;;;;;;5096239;28;20020;-72
2021/06/30 06:37:38;;;;;;;3.88;2.78;;;;;;;;;;5096551;28;20462;-71
2021/06/30 06:40:07;;;;;;;3.72;2.75;;;;;;;;;;5097305;28;20017;-72
2021/06/30 06:42:33;;;;;;;3.38;2.40;;;;;;;;;;5096184;28;20488;-70
2021/06/30 06:44:59;;;;;;;5.20;3.15;;;;;;;;;;5096250;28;20335;-71
2021/06/30 06:47:25;;;;;;;6.70;2.95;;;;;;;;;;5095684;28;20027;-71
2021/06/30 06:49:51;;;;;;;4.88;3.13;;;;;;;;;;5095765;28;20465;-71
2021/06/30 06:52:17;;;;;;;6.30;2.28;;;;;;;;;;5096811;28;20048;-71
2021/06/30 06:54:43;;;;;;;9.13;4.13;;;;;;;;;;5096356;28;20024;-71
2021/06/30 06:57:09;;;;;;;5.93;3.40;;;;;;;;;;5095524;28;20035;-72
2021/06/30 06:59:35;;;;;;;12.30;3.45;;;;;;;;;;5095580;28;20106;-71
2021/06/30 07:02:01;;;;;;;2.47;2.22;;;;;;;;;;5094963;28;20024;-72
2021/06/30 07:04:27;;;;;;;6.30;2.65;;;;;;;;;;5096437;28;20362;-72
2021/06/30 07:06:53;;;;;;;3.30;2.97;;;;;;;;;;5096075;28;20020;-73
2021/06/30 07:09:19;;;;;;;3.92;3.05;;;;;;;;;;5095477;28;20016;-72
2021/06/30 07:11:46;;;;;;;6.07;2.67;;;;;;;;;;5095677;28;20369;-72
2021/06/30 07:14:12;;;;;;;5.93;2.95;;;;;;;;;;5096050;28;20038;-72
2021/06/30 07:16:38;;;;;;;3.78;3.10;;;;;;;;;;5095841;28;20028;-73
2021/06/30 07:19:04;;;;;;;13.35;3.40;;;;;;;;;;5095277;28;20485;-73
2021/06/30 07:21:33;;;;;;;6.20;2.63;;;;;;;;;;5095248;28;20024;-73
2021/06/30 07:23:59;;;;;;;4.20;2.80;;;;;;;;;;5095019;28;20028;-72
2021/06/30 07:26:25;;;;;;;4.13;2.30;;;;;;;;;;5095213;28;20024;-73
2021/06/30 07:28:52;;;;;;;4.93;2.10;;;;;;;;;;5095275;28;20024;-73
2021/06/30 07:31:19;;;;;;;3.58;2.72;;;;;;;;;;5094762;28;20031;-74
2021/06/30 07:33:45;;;;;;;3.90;3.08;;;;;;;;;;5094902;28;20036;-73
2021/06/30 07:36:12;;;;;;;3.75;2.45;;;;;;;;;;5095175;28;20028;-73
2021/06/30 07:38:38;;;;;;;4.18;3.83;;;;;;;;;;5094607;28;20553;-73
2021/06/30 07:41:04;;;;;;;4.20;3.80;;;;;;;;;;5094832;28;20040;-74
2021/06/30 07:43:31;;;;;;;13.60;8.32;;;;;;;;;;5094790;28;20035;-73
2021/06/30 07:45:57;;;;;;;13.52;12.10;;;;;;;;;;5095387;28;20032;-73
2021/06/30 07:48:23;;;;;;;19.42;15.32;;;;;;;;;;5095190;28;20115;-73
2021/06/30 07:50:49;;;;;;;35.25;15.60;;;;;;;;;;5094613;28;20031;-72
2021/06/30 07:53:16;;;;;;;21.00;13.68;;;;;;;;;;5094556;28;20055;-73
2021/06/30 07:55:42;;;;;;;14.63;9.27;;;;;;;;;;5093365;28;20056;-73
2021/06/30 07:58:08;;;;;;;24.90;12.45;;;;;;;;;;5094891;28;20461;-73
2021/06/30 08:00:34;;;;;;;23.60;11.80;;;;;;;;;;5094569;28;20041;-72
2021/06/30 08:03:00;;;;;;;35.80;10.32;;;;;;;;;;5094670;28;20024;-73
2021/06/30 08:05:26;;;;;;;17.92;8.80;;;;;;;;;;5094285;28;20110;-74
2021/06/30 08:07:52;;;;;;;11.82;6.05;;;;;;;;;;5094649;28;20028;-73
2021/06/30 08:10:18;;;;;;;12.73;7.43;;;;;;;;;;5094534;28;20032;-72
2021/06/30 08:12:44;;;;;;;9.98;6.15;;;;;;;;;;5094588;28;20039;-73
2021/06/30 08:15:11;;;;;;;9.77;6.35;;;;;;;;;;5094305;28;20028;-74
2021/06/30 08:17:38;;;;;;;10.50;5.00;;;;;;;;;;5094711;28;20020;-74
2021/06/30 08:20:05;;;;;;;13.82;4.47;;;;;;;;;;5094020;28;20028;-73
2021/06/30 08:22:31;;;;;;;10.85;4.97;;;;;;;;;;5094033;28;20063;-74
2021/06/30 08:24:57;;;;;;;7.85;3.85;;;;;;;;;;5093996;28;20024;-74
2021/06/30 08:27:23;;;;;;;4.90;3.88;;;;;;;;;;5094075;28;20031;-73
2021/06/30 08:29:50;;;;;;;7.25;3.95;;;;;;;;;;5094565;28;20024;-74
2021/06/30 08:32:16;;;;;;;8.38;3.65;;;;;;;;;;5093352;28;20481;-73
2021/06/30 08:34:42;;;;;;;11.20;3.83;;;;;;;;;;5093329;28;20053;-74
2021/06/30 08:37:14;;;;;;;9.88;3.95;;;;;;;;;;5094262;28;20416;-74
2021/06/30 08:39:41;;;;;;;7.85;3.78;;;;;;;;;;5092288;28;20032;-74
2021/06/30 08:42:07;;;;;;;6.40;3.83;;;;;;;;;;5091530;28;20486;-74
2021/06/30 08:44:33;;;;;;;5.22;3.22;;;;;;;;;;5092506;28;20020;-74
2021/06/30 08:47:00;;;;;;;4.95;3.50;;;;;;;;;;5093756;28;20039;-74
2021/06/30 08:49:26;;;;;;;13.40;3.33;;;;;;;;;;5093325;28;20103;-72
2021/06/30 08:51:53;;;;;;;4.10;2.58;;;;;;;;;;5093392;28;20048;-73
2021/06/30 08:54:19;;;;;;;7.15;3.45;;;;;;;;;;5094146;28;20116;-75
2021/06/30 08:56:47;;;;;;;5.13;3.30;;;;;;;;;;5093819;28;20048;-72
2021/06/30 08:59:16;;;;;;;7.85;3.25;;;;;;;;;;5094449;28;20038;-74
2021/06/30 09:01:43;;;;;;;4.82;3.30;;;;;;;;;;5094829;28;20416;-73
2021/06/30 09:04:11;;;;;;;10.43;4.03;;;;;;;;;;5094188;28;20069;-73
2021/06/30 09:06:37;;;;;;;9.07;3.65;;;;;;;;;;5094531;28;20497;-73
2021/06/30 09:09:06;;;;;;;5.57;2.53;;;;;;;;;;5094030;28;20020;-73
2021/06/30 09:11:32;;;;;;;4.22;3.28;;;;;;;;;;5094527;28;20016;-74
2021/06/30 09:14:16;;;;;;;10.57;3.70;;;;;;;;;;5092401;28;20038;-74
2021/06/30 09:17:06;;;;;;;5.40;3.28;;;;;;;;;;5092412;28;20031;-74
2021/06/30 09:19:51;;;;;;;5.35;2.60;;;;;;;;;;5093403;28;20024;-72
2021/06/30 09:22:18;;;;;;;5.93;3.20;;;;;;;;;;5093003;28;20167;-72
2021/06/30 09:24:44;;;;;;;5.10;3.53;;;;;;;;;;5093153;28;20020;-72
2021/06/30 09:27:10;;;;;;;3.90;3.50;;;;;;;;;;5092839;28;20024;-72
2021/06/30 09:29:38;;;;;;;6.18;3.08;;;;;;;;;;5093981;28;20077;-73
2021/06/30 09:32:13;;;;;;;10.95;3.22;;;;;;;;;;5094688;28;20016;-73
2021/06/30 09:34:39;;;;;;;3.92;2.97;;;;;;;;;;5094406;28;20028;-73
2021/06/30 09:37:07;;;;;;;7.32;3.10;;;;;;;;;;5093859;28;20107;-73
2021/06/30 09:39:36;;;;;;;5.18;3.00;;;;;;;;;;5094324;28;20056;-73
2021/06/30 09:42:04;;;;;;;6.82;3.95;;;;;;;;;;5093761;28;20059;-73
2021/06/30 09:44:31;;;;;;;15.07;3.65;;;;;;;;;;5094292;28;20027;-72
2021/06/30 09:46:57;;;;;;;11.48;4.88;;;;;;;;;;5096927;28;20496;-72
2021/06/30 09:49:25;;;;;;;6.10;3.40;;;;;;;;;;5097544;28;20028;-72
2021/06/30 09:52:12;;;;;;;7.75;4.18;;;;;;;;;;5097913;28;20457;-73
2021/06/30 09:54:39;;;;;;;8.75;3.90;;;;;;;;;;5096394;28;20512;-72
2021/06/30 09:57:06;;;;;;;4.93;3.22;;;;;;;;;;5097892;28;20028;-73
2021/06/30 09:59:36;;;;;;;5.25;3.30;;;;;;;;;;5097712;28;20024;-72
2021/06/30 10:02:05;;;;;;;5.78;3.08;;;;;;;;;;5097631;28;20052;-72
2021/06/30 10:04:32;;;;;;;6.55;3.70;;;;;;;;;;5097628;28;20066;-72
2021/06/30 10:06:59;;;;;;;4.03;2.60;;;;;;;;;;5097336;28;20474;-72
2021/06/30 10:09:25;;;;;;;6.43;2.97;;;;;;;;;;5097302;28;20064;-73
2021/06/30 10:12:00;;;;;;;3.65;2.88;;;;;;;;;;5098152;28;20084;-71
2021/06/30 10:14:26;;;;;;;12.63;3.95;;;;;;;;;;5097643;28;20043;-72
2021/06/30 10:16:52;;;;;;;9.10;4.07;;;;;;;;;;5097405;28;20020;-72
2021/06/30 10:19:19;;;;;;;3.75;2.70;;;;;;;;;;5097221;28;20024;-72
2021/06/30 10:21:45;;;;;;;4.75;2.97;;;;;;;;;;5096999;28;20465;-73
2021/06/30 10:24:11;;;;;;;3.42;2.78;;;;;;;;;;5097585;28;20026;-72
2021/06/30 10:26:37;;;;;;;2.88;2.67;;;;;;;;;;5097136;28;20036;-72
2021/06/30 10:29:03;;;;;;;4.60;2.20;;;;;;;;;;5096721;28;20028;-74
2021/06/30 10:31:35;;;;;;;3.83;2.95;;;;;;;;;;5097068;28;20024;-72
2021/06/30 10:34:02;;;;;;;3.70;2.83;;;;;;;;;;5097095;28;20035;-72
2021/06/30 10:36:48;;;;;;;5.97;2.70;;;;;;;;;;5096665;28;20032;-73
2021/06/30 10:39:15;;;;;;;3.17;2.80;;;;;;;;;;5095880;28;20024;-72
2021/06/30 10:41:56;;;;;;;6.40;2.70;;;;;;;;;;5097053;28;20028;-73
2021/06/30 10:44:23;;;;;;;5.22;3.35;;;;;;;;;;5097162;28;20020;-72
2021/06/30 10:46:49;;;;;;;6.15;2.95;;;;;;;;;;5096432;28;20507;-72
2021/06/30 10:49:19;;;;;;;3.92;2.47;;;;;;;;;;5096526;28;20469;-72
2021/06/30 10:51:46;;;;;;;3.63;2.78;;;;;;;;;;5096520;28;20048;-72
2021/06/30 10:54:32;;;;;;;4.57;3.00;;;;;;;;;;5096846;28;20039;-73
2021/06/30 10:57:18;;;;;;;3.28;2.58;;;;;;;;;;5095098;28;20020;-73
2021/06/30 11:00:05;;;;;;;2.90;2.60;;;;;;;;;;5096270;28;20025;-73
2021/06/30 11:02:32;;;;;;;4.95;2.92;;;;;;;;;;5095652;28;20461;-73
2021/06/30 11:05:18;;;;;;;3.38;2.50;;;;;;;;;;5096352;28;20397;-73
2021/06/30 11:07:44;;;;;;;2.45;2.25;;;;;;;;;;5095283;28;20012;-73
2021/06/30 11:13:33;;;;;;;4.15;3.13;;;;;;;;;;5096031;28;20088;-73
2021/06/30 11:19:34;;;;;;;5.47;2.50;;;;;;;;;;5096213;28;20077;-73
2021/06/30 11:22:03;;;;;;;2.55;2.35;;;;;;;;;;5095139;28;20032;-73
2021/06/30 11:24:49;;;;;;;5.15;3.60;;;;;;;;;;5095809;28;20031;-74
2021/06/30 11:27:36;;;;;;;4.10;3.70;;;;;;;;;;5095706;28;20077;-73
2021/06/30 11:30:05;;;;;;;4.72;3.88;;;;;;;;;;5095338;28;20020;-73
2021/06/30 11:32:51;;;;;;;5.20;3.50;;;;;;;;;;5095872;28;20062;-72
2021/06/30 11:35:23;;;;;;;3.05;2.80;;;;;;;;;;5094796;28;20028;-73
2021/06/30 11:37:56;;;;;;;4.40;3.05;;;;;;;;;;5096066;28;20034;-73
2021/06/30 11:40:31;;;;;;;4.55;2.97;;;;;;;;;;5095791;28;20088;-73
2021/06/30 11:49:06;;;;;;;4.07;3.42;;;;;;;;;;5095608;28;20031;-73
2021/06/30 11:51:32;;;;;;;4.70;2.97;;;;;;;;;;5095673;28;20130;-74
2021/06/30 11:53:58;;;;;;;3.10;2.47;;;;;;;;;;5095178;28;20036;-74
2021/06/30 11:56:35;;;;;;;4.85;2.95;;;;;;;;;;5095840;28;20028;-74
2021/06/30 11:59:04;;;;;;;5.40;3.03;;;;;;;;;;5095828;28;20420;-74
2021/06/30 12:01:30;;;;;;;2.85;2.55;;;;;;;;;;5095363;28;20028;-74
2021/06/30 12:04:13;;;;;;;4.30;3.60;;;;;;;;;;5095437;28;20071;-72
2021/06/30 12:06:39;;;;;;;2.53;2.33;;;;;;;;;;5095481;28;20056;-74
2021/06/30 12:09:25;;;;;;;3.53;2.53;;;;;;;;;;5094059;28;20036;-74
2021/06/30 12:11:53;;;;;;;6.53;3.35;;;;;;;;;;5094247;28;20079;-73
2021/06/30 12:14:21;;;;;;;5.20;2.53;;;;;;;;;;5095204;28;20036;-73
2021/06/30 12:16:48;;;;;;;5.03;2.30;;;;;;;;;;5094763;28;20389;-77
2021/06/30 12:19:16;;;;;;;2.60;2.30;;;;;;;;;;5094928;28;20043;-75
2021/06/30 12:21:43;;;;;;;2.72;2.53;;;;;;;;;;5095116;28;20020;-75
2021/06/30 12:24:12;;;;;;;5.28;2.80;;;;;;;;;;5095365;28;20028;-75
2021/06/30 12:26:54;;;;;;;4.32;2.65;;;;;;;;;;5094758;28;20043;-76
2021/06/30 12:29:20;;;;;;;5.18;3.17;;;;;;;;;;5094741;28;20026;-75
2021/06/30 12:31:46;;;;;;;2.97;2.78;;;;;;;;;;5094990;28;20073;-73
2021/06/30 12:34:13;;;;;;;2.58;2.30;;;;;;;;;;5094713;28;20600;-73
2021/06/30 12:36:39;;;;;;;3.17;2.67;;;;;;;;;;5095001;28;20024;-73
2021/06/30 12:39:21;;;;;;;6.25;2.80;;;;;;;;;;5094682;28;20027;-73
2021/06/30 12:41:50;;;;;;;2.78;2.58;;;;;;;;;;5094620;28;20103;-73
2021/06/30 12:44:16;;;;;;;3.08;2.22;;;;;;;;;;5094784;28;20415;-73
2021/06/30 12:46:42;;;;;;;5.28;2.88;;;;;;;;;;5094720;28;20020;-74
2021/06/30 12:49:16;;;;;;;3.13;2.67;;;;;;;;;;5094321;28;20031;-74
2021/06/30 12:51:43;;;;;;;2.95;2.65;;;;;;;;;;5094582;28;20095;-74
2021/06/30 12:54:09;;;;;;;5.05;2.30;;;;;;;;;;5094491;28;20024;-74
2021/06/30 12:56:42;;;;;;;2.80;2.60;;;;;;;;;;5094163;28;20488;-74
2021/06/30 12:59:15;;;;;;;3.80;2.83;;;;;;;;;;5094265;28;20051;-74
2021/06/30 13:01:42;;;;;;;2.88;2.58;;;;;;;;;;5094333;28;20020;-74
2021/06/30 13:04:08;;;;;;;4.20;3.13;;;;;;;;;;5094542;28;20028;-73
2021/06/30 13:06:37;;;;;;;4.55;3.47;;;;;;;;;;5094056;28;20024;-74
2021/06/30 13:09:05;;;;;;;2.97;2.78;;;;;;;;;;5093595;28;20424;-74
2021/06/30 13:11:53;;;;;;;5.68;2.83;;;;;;;;;;5094221;28;20085;-74
2021/06/30 13:14:22;;;;;;;5.47;2.60;;;;;;;;;;5093594;28;20036;-74
2021/06/30 13:16:52;;;;;;;4.78;2.80;;;;;;;;;;5094013;28;20351;-73
2021/06/30 13:19:21;;;;;;;4.43;2.72;;;;;;;;;;5093809;28;20031;-74
2021/06/30 13:21:50;;;;;;;3.30;2.70;;;;;;;;;;5096562;28;20818;-73
2021/06/30 13:24:17;;;;;;;3.55;2.75;;;;;;;;;;5098808;28;20029;-74
2021/06/30 13:27:29;;;;;;;3.72;2.60;;;;;;;;;;5098185;28;20115;-73
2021/06/30 13:35:48;;;;;;;3.83;3.35;;;;;;;;;;5083029;28;20055;-76
2021/06/30 13:38:18;;;;;;;6.68;3.08;;;;;;;;;;5097742;28;20091;-75
2021/06/30 13:40:45;;;;;;;3.45;2.88;;;;;;;;;;5098225;28;20381;-75
2021/06/30 13:43:14;;;;;;;4.93;2.53;;;;;;;;;;5098127;28;20024;-77
2021/06/30 13:45:41;;;;;;;2.45;2.22;;;;;;;;;;5097909;28;20024;-76
2021/06/30 13:48:08;;;;;;;2.75;2.33;;;;;;;;;;5098321;28;20025;-76
2021/06/30 13:50:35;;;;;;;5.57;2.70;;;;;;;;;;5097911;28;20017;-76
2021/06/30 13:53:01;;;;;;;2.67;2.47;;;;;;;;;;5097843;28;20048;-76
2021/06/30 13:55:27;;;;;;;4.10;3.00;;;;;;;;;;5097760;28;20028;-76
2021/06/30 13:57:54;;;;;;;3.33;2.95;;;;;;;;;;5098017;28;20027;-76
2021/06/30 14:00:20;;;;;;;2.95;2.72;;;;;;;;;;5097590;28;20082;-77
2021/06/30 14:02:46;;;;;;;3.90;2.63;;;;;;;;;;5097512;28;20450;-77
2021/06/30 14:05:12;;;;;;;3.05;2.70;;;;;;;;;;5097559;28;20103;-77
2021/06/30 14:07:38;;;;;;;3.40;2.53;;;;;;;;;;5097450;28;20024;-76
2021/06/30 14:10:05;;;;;;;3.53;3.05;;;;;;;;;;5097471;28;20473;-77
2021/06/30 14:12:32;;;;;;;2.38;2.17;;;;;;;;;;5097209;28;20359;-76
2021/06/30 14:14:58;;;;;;;3.20;2.63;;;;;;;;;;5097533;28;20027;-77
2021/06/30 14:17:24;;;;;;;5.18;2.92;;;;;;;;;;5097151;28;20032;-77
2021/06/30 14:19:50;;;;;;;7.80;2.30;;;;;;;;;;5097225;28;20111;-76
2021/06/30 14:22:31;;;;;;;2.97;2.60;;;;;;;;;;5096903;28;20466;-76
2021/06/30 14:24:57;;;;;;;4.35;2.47;;;;;;;;;;5095948;28;20111;-75
2021/06/30 14:27:24;;;;;;;5.78;3.08;;;;;;;;;;5096702;28;20032;-76
2021/06/30 14:29:52;;;;;;;5.28;2.75;;;;;;;;;;5096843;28;20028;-76
2021/06/30 14:32:18;;;;;;;7.90;2.80;;;;;;;;;;5094746;28;20370;-76
2021/06/30 14:34:44;;;;;;;4.53;2.90;;;;;;;;;;5095447;28;20068;-75
2021/06/30 14:37:11;;;;;;;5.82;2.33;;;;;;;;;;5096363;28;20027;-75
2021/06/30 14:39:37;;;;;;;2.88;2.20;;;;;;;;;;5095534;28;20104;-79
2021/06/30 14:42:04;;;;;;;5.03;2.97;;;;;;;;;;5097850;28;20036;-77
2021/06/30 14:44:30;;;;;;;5.43;2.75;;;;;;;;;;5097618;28;20057;-76
2021/06/30 14:46:56;;;;;;;4.28;2.47;;;;;;;;;;5095308;28;20160;-76
2021/06/30 14:49:22;;;;;;;3.45;2.53;;;;;;;;;;5095808;28;20077;-76
2021/06/30 14:51:48;;;;;;;3.50;2.63;;;;;;;;;;5095134;28;20489;-77
2021/06/30 14:54:14;;;;;;;10.55;2.50;;;;;;;;;;5095767;28;20036;-76
2021/06/30 14:56:40;;;;;;;5.80;3.05;;;;;;;;;;5094526;28;20519;-73
2021/06/30 14:59:06;;;;;;;7.47;2.53;;;;;;;;;;5093855;28;20044;-71
2021/06/30 15:01:33;;;;;;;3.22;2.92;;;;;;;;;;5095979;28;20119;-72
2021/06/30 15:03:59;;;;;;;13.40;4.60;;;;;;;;;;5094820;28;20441;-74
2021/06/30 15:06:25;;;;;;;4.40;2.70;;;;;;;;;;5094283;28;20027;-73
2021/06/30 15:08:51;;;;;;;9.45;2.63;;;;;;;;;;5094908;28;20039;-73
2021/06/30 15:11:17;;;;;;;6.13;3.20;;;;;;;;;;5095537;28;20062;-73